YFC95 WSSL-WSJC

Flight info

Callsign YFC95
Flight time N/A
Altitude 8000
Route LATA BC VIA A
Aircraft DA40/L-SBDGRY/S

Departure

Time 2026-04-28 15:43
Airport Seletar Airport (WSSL)

Arrival

Time N/A
Airport WSJC
Time Latitude Longitude Altitude Speed Heading
2026-04-28 15:38 1.41519 103.86591 50 ft 14 kts 122°
2026-04-28 15:38 1.41456 103.86607 50 ft 14 kts 212°
2026-04-28 15:38 1.41331 103.86520 49 ft 28 kts 217°
2026-04-28 15:39 1.41148 103.86396 49 ft 32 kts 213°
2026-04-28 15:39 1.40990 103.86294 47 ft 25 kts 214°
2026-04-28 15:39 1.40882 103.86219 47 ft 11 kts 181°
2026-04-28 15:39 1.40888 103.86238 47 ft 0 kts 31°
2026-04-28 15:42 1.40898 103.86244 47 ft 14 kts 34°
2026-04-28 15:42 1.41141 103.86404 49 ft 67 kts 32°
2026-04-28 15:42 1.41589 103.86701 217 ft 78 kts 31°
2026-04-28 15:42 1.42060 103.86999 425 ft 85 kts 30°
2026-04-28 15:43 1.42584 103.87119 700 ft 79 kts 322°
2026-04-28 15:43 1.42904 103.86647 911 ft 83 kts 298°
2026-04-28 15:43 1.42962 103.86152 1162 ft 80 kts 225°
2026-04-28 15:43 1.42457 103.85889 1381 ft 82 kts 209°
2026-04-28 15:44 1.41945 103.85597 1516 ft 97 kts 209°
2026-04-28 15:44 1.41312 103.85216 1528 ft 114 kts 224°
2026-04-28 15:44 1.40743 103.84611 1532 ft 124 kts 228°
2026-04-28 15:44 1.40167 103.83975 1506 ft 122 kts 227°
2026-04-28 15:45 1.39548 103.83423 1518 ft 114 kts 212°
2026-04-28 15:45 1.39002 103.82903 1566 ft 108 kts 259°
2026-04-28 15:45 1.39136 103.82170 1709 ft 107 kts 280°
2026-04-28 15:45 1.39270 103.81470 1985 ft 98 kts 277°
2026-04-28 15:46 1.39352 103.80867 2350 ft 80 kts 274°
2026-04-28 15:46 1.39389 103.80306 2570 ft 82 kts 268°
2026-04-28 15:46 1.39378 103.79728 2802 ft 81 kts 265°
2026-04-28 15:46 1.39357 103.79170 3009 ft 84 kts 268°
2026-04-28 15:47 1.39348 103.78597 3260 ft 81 kts 265°
2026-04-28 15:47 1.39306 103.78015 3458 ft 84 kts 260°
2026-04-28 15:47 1.39108 103.77497 3700 ft 80 kts 211°
2026-04-28 15:47 1.38516 103.77502 3815 ft 94 kts 172°
2026-04-28 15:48 1.37881 103.77587 4086 ft 85 kts 173°
2026-04-28 15:48 1.37319 103.77652 4373 ft 80 kts 173°
2026-04-28 15:48 1.36733 103.77739 4571 ft 88 kts 171°
2026-04-28 15:48 1.36136 103.77854 4794 ft 86 kts 168°
2026-04-28 15:49 1.35900 103.78326 4984 ft 90 kts 67°
2026-04-28 15:49 1.36460 103.78572 4819 ft 100 kts 358°
2026-04-28 15:49 1.37156 103.78579 4583 ft 99 kts
2026-04-28 15:49 1.37784 103.78799 4390 ft 99 kts 55°
2026-04-28 15:50 1.38107 103.79458 3966 ft 113 kts 68°
2026-04-28 15:50 1.38403 103.80203 3599 ft 115 kts 71°
2026-04-28 15:50 1.38675 103.80950 3237 ft 116 kts 73°
2026-04-28 15:50 1.38928 103.81715 2879 ft 115 kts 73°
2026-04-28 15:51 1.39195 103.82463 2529 ft 114 kts 71°
2026-04-28 15:51 1.39400 103.83198 2302 ft 106 kts 77°
2026-04-28 15:51 1.39581 103.83897 2174 ft 107 kts 73°
2026-04-28 15:51 1.39731 103.84631 1992 ft 108 kts 82°
2026-04-28 15:52 1.39848 103.85348 1962 ft 101 kts 75°
2026-04-28 15:52 1.40238 103.85896 2046 ft 98 kts 39°
2026-04-28 15:52 1.40785 103.86289 2014 ft 96 kts 38°
2026-04-28 15:52 1.41321 103.86665 1859 ft 92 kts 33°
2026-04-28 15:53 1.41876 103.86970 1715 ft 95 kts 355°
2026-04-28 15:53 1.42391 103.86529 1399 ft 105 kts 309°
2026-04-28 15:53 1.42469 103.85889 1058 ft 104 kts 225°
2026-04-28 15:53 1.41881 103.85536 957 ft 95 kts 212°
2026-04-28 15:54 1.41343 103.85174 913 ft 92 kts 216°
2026-04-28 15:54 1.40848 103.84803 911 ft 83 kts 218°
2026-04-28 15:54 1.40347 103.84919 688 ft 87 kts 128°
2026-04-28 15:54 1.40032 103.85398 527 ft 80 kts 112°
2026-04-28 15:55 1.40266 103.85848 325 ft 81 kts 32°
2026-04-28 15:55 1.40729 103.86138 123 ft 77 kts 32°
2026-04-28 15:55 1.41151 103.86410 49 ft 59 kts 34°
2026-04-28 15:55 1.41327 103.86526 49 ft 18 kts 34°
2026-04-28 15:56 1.41443 103.86599 50 ft 20 kts 33°
2026-04-28 15:56 1.41524 103.86584 50 ft 17 kts 307°